Time;durP1;ratioP1;P1;durP2;ratioP2;P2;SDS_P1;SDS_P2;PMS_P1;PMS_P2;Temp;Humidity;BMP_temperature;BMP_pressure;BME280_temperature;BME280_humidity;BME280_pressure;Samples;Min_cycle;Max_cycle;Signal;HPM_P1;HPM_P2
2022/07/18 00:00:59;;;;;;;4.30;2.20;;;17.00;99.90;;;;;;5025820;28;20133;-62
2022/07/18 00:03:25;;;;;;;6.35;2.65;;;16.90;99.90;;;;;;5029697;28;20135;-61
2022/07/18 00:05:51;;;;;;;7.20;2.40;;;16.80;99.90;;;;;;5027187;28;20033;-61
2022/07/18 00:08:17;;;;;;;4.80;2.50;;;16.90;99.90;;;;;;5032589;28;20026;-61
2022/07/18 00:10:42;;;;;;;7.68;2.75;;;16.90;99.90;;;;;;5024552;28;20123;-61
2022/07/18 00:13:09;;;;;;;7.60;2.38;;;16.90;99.90;;;;;;5040046;28;20064;-62
2022/07/18 00:15:36;;;;;;;5.07;2.33;;;16.70;99.90;;;;;;5044887;28;20017;-61
2022/07/18 00:18:02;;;;;;;5.57;2.20;;;16.70;99.90;;;;;;5044582;28;20028;-60
2022/07/18 00:20:28;;;;;;;7.40;2.30;;;16.80;99.90;;;;;;5028548;28;20430;-61
2022/07/18 00:22:54;;;;;;;3.53;2.22;;;16.80;99.90;;;;;;5029536;28;20045;-61
2022/07/18 00:25:19;;;;;;;7.72;2.28;;;16.70;99.90;;;;;;5031687;28;20022;-61
2022/07/18 00:27:45;;;;;;;5.70;2.20;;;16.80;99.90;;;;;;5030876;28;20029;-61
2022/07/18 00:30:11;;;;;;;4.40;2.03;;;16.80;99.90;;;;;;5026416;28;20104;-62
2022/07/18 00:32:36;;;;;;;7.75;2.22;;;16.60;99.90;;;;;;5028063;28;20312;-61
2022/07/18 00:35:02;;;;;;;6.15;2.10;;;16.80;99.90;;;;;;5029956;28;20017;-61
2022/07/18 00:37:27;;;;;;;2.95;1.67;;;16.70;99.90;;;;;;5028323;28;20033;-61
2022/07/18 00:39:54;;;;;;;6.35;2.13;;;16.60;99.90;;;;;;5031154;28;20045;-61
2022/07/18 00:42:20;;;;;;;5.75;2.25;;;16.60;99.90;;;;;;5028433;28;20030;-61
2022/07/18 00:44:46;;;;;;;3.60;1.77;;;16.60;99.90;;;;;;5029651;28;20029;-61
2022/07/18 00:47:11;;;;;;;3.20;2.08;;;16.60;99.90;;;;;;5037304;28;20036;-61
2022/07/18 00:49:37;;;;;;;3.90;1.75;;;16.50;99.90;;;;;;5044485;28;20072;-61
2022/07/18 00:52:04;;;;;;;4.90;2.05;;;16.50;99.90;;;;;;5041426;28;20052;-61
2022/07/18 00:54:32;;;;;;;6.75;2.22;;;16.40;99.90;;;;;;5040455;28;20060;-60
2022/07/18 00:56:58;;;;;;;4.40;1.95;;;16.40;99.90;;;;;;5040221;28;20731;-62
2022/07/18 01:01:42;;;;;;;3.67;1.70;;;16.40;99.90;;;;;;5031635;28;20033;-62
2022/07/18 01:02:10;;;;;;;4.38;2.40;;;16.40;99.90;;;;;;5033801;28;20364;-61
2022/07/18 01:04:36;;;;;;;6.43;2.15;;;16.30;99.90;;;;;;5037719;28;20139;-61
2022/07/18 01:07:02;;;;;;;4.15;1.95;;;16.30;99.90;;;;;;5037115;28;20047;-60
2022/07/18 01:09:27;;;;;;;4.88;1.85;;;16.30;99.90;;;;;;5036287;28;20026;-61
2022/07/18 01:11:53;;;;;;;3.60;1.92;;;16.30;99.90;;;;;;5042106;28;20040;-61
2022/07/18 01:14:19;;;;;;;4.20;1.73;;;16.20;99.90;;;;;;5042703;28;20021;-61
2022/07/18 01:16:44;;;;;;;6.32;2.00;;;16.30;99.90;;;;;;5044208;28;20112;-60
2022/07/18 01:19:11;;;;;;;3.38;2.00;;;16.20;99.90;;;;;;5044456;28;20478;-61
2022/07/18 01:21:37;;;;;;;5.05;2.40;;;16.20;99.90;;;;;;5034902;28;20030;-61
2022/07/18 01:24:03;;;;;;;4.68;2.00;;;16.20;99.90;;;;;;5033889;28;20022;-61
2022/07/18 01:26:29;;;;;;;4.38;1.98;;;16.20;99.90;;;;;;5037782;28;20753;-62
2022/07/18 01:28:55;;;;;;;5.25;2.08;;;16.10;99.90;;;;;;5040262;28;20029;-62
2022/07/18 01:31:20;;;;;;;3.42;1.83;;;16.10;99.90;;;;;;5036696;28;20140;-61
2022/07/18 01:33:46;;;;;;;3.85;1.98;;;16.20;99.90;;;;;;5032854;28;20026;-62
2022/07/18 01:36:12;;;;;;;6.40;1.90;;;16.20;99.90;;;;;;5038106;28;20022;-61
2022/07/18 01:38:38;;;;;;;3.63;2.03;;;16.10;99.90;;;;;;5032435;28;20112;-61
2022/07/18 01:41:04;;;;;;;6.88;2.03;;;16.10;99.90;;;;;;5034605;28;20378;-61
2022/07/18 01:43:30;;;;;;;6.15;2.20;;;16.00;99.90;;;;;;5042446;28;20035;-60
2022/07/18 01:45:56;;;;;;;5.30;2.00;;;15.90;99.90;;;;;;5041685;28;20033;-61
2022/07/18 01:48:23;;;;;;;4.43;1.77;;;15.90;99.90;;;;;;5035778;28;20555;-60
2022/07/18 01:50:49;;;;;;;5.25;2.10;;;15.80;99.90;;;;;;5036332;28;20034;-60
2022/07/18 01:53:14;;;;;;;4.75;2.08;;;15.80;99.90;;;;;;5030989;28;20596;-62
2022/07/18 01:55:40;;;;;;;6.75;1.98;;;15.70;99.90;;;;;;5043592;28;20136;-61
2022/07/18 01:58:06;;;;;;;2.45;1.70;;;15.80;99.90;;;;;;5038366;28;20106;-61
2022/07/18 02:00:31;;;;;;;6.07;2.15;;;15.80;99.90;;;;;;5035082;28;20158;-62
2022/07/18 02:02:57;;;;;;;9.32;2.38;;;15.80;99.90;;;;;;5044960;28;20032;-61
2022/07/18 02:05:22;;;;;;;5.32;2.13;;;15.80;99.90;;;;;;5031507;28;20330;-61
2022/07/18 02:07:48;;;;;;;7.38;2.08;;;15.80;99.90;;;;;;5027415;28;20109;-60
2022/07/18 02:10:17;;;;;;;4.82;1.92;;;15.70;99.90;;;;;;5031731;28;20041;-61
2022/07/18 02:12:43;;;;;;;4.78;2.08;;;15.70;99.90;;;;;;5032328;28;20009;-61
2022/07/18 02:15:10;;;;;;;6.70;1.70;;;15.70;99.90;;;;;;5036513;28;20152;-61
2022/07/18 02:17:37;;;;;;;4.03;1.98;;;15.70;99.90;;;;;;5038646;28;20701;-62
2022/07/18 02:20:04;;;;;;;3.22;1.98;;;15.60;99.90;;;;;;5030955;28;20523;-62
2022/07/18 02:22:30;;;;;;;4.10;2.08;;;15.60;99.90;;;;;;5030746;28;20064;-61
2022/07/18 02:24:55;;;;;;;3.53;1.85;;;15.70;99.90;;;;;;5027877;28;20052;-61
2022/07/18 02:27:21;;;;;;;2.65;1.83;;;15.60;99.90;;;;;;5035154;28;20021;-61
2022/07/18 02:29:47;;;;;;;3.80;1.83;;;15.50;99.90;;;;;;5028443;28;20034;-61
2022/07/18 02:32:12;;;;;;;4.72;2.28;;;15.40;99.90;;;;;;5033628;28;20384;-61
2022/07/18 02:34:38;;;;;;;3.53;2.00;;;15.40;99.90;;;;;;5032901;28;20056;-60
2022/07/18 02:37:04;;;;;;;4.00;2.05;;;15.40;99.90;;;;;;5031774;28;20092;-60
2022/07/18 02:39:30;;;;;;;3.80;2.60;;;15.40;99.90;;;;;;5029600;28;20048;-61
2022/07/18 02:41:56;;;;;;;6.07;2.45;;;15.40;99.90;;;;;;5031504;28;20397;-61
2022/07/18 02:44:22;;;;;;;3.33;2.30;;;15.40;99.90;;;;;;5030845;28;20099;-61
2022/07/18 02:46:47;;;;;;;6.30;2.38;;;15.40;99.90;;;;;;5035689;28;20117;-60
2022/07/18 02:49:26;;;;;;;4.93;1.95;;;15.20;99.90;;;;;;5030337;28;20143;-61
2022/07/18 02:51:53;;;;;;;6.32;2.30;;;15.30;99.90;;;;;;5034643;28;20116;-61
2022/07/18 02:54:20;;;;;;;5.22;2.20;;;15.30;99.90;;;;;;5034038;28;20025;-61
2022/07/18 02:56:46;;;;;;;3.92;1.98;;;15.30;99.90;;;;;;5042280;28;20030;-61
2022/07/18 02:59:11;;;;;;;4.50;2.28;;;15.20;99.90;;;;;;5039708;28;20678;-60
2022/07/18 03:01:37;;;;;;;5.72;2.10;;;15.30;99.90;;;;;;5032515;28;20507;-61
2022/07/18 03:04:02;;;;;;;3.88;2.33;;;15.20;99.90;;;;;;5030798;28;20036;-61
2022/07/18 03:06:28;;;;;;;5.00;2.03;;;15.20;99.90;;;;;;5027245;28;20112;-61
2022/07/18 03:08:54;;;;;;;4.47;2.20;;;15.20;99.90;;;;;;5030867;28;20061;-60
2022/07/18 03:11:19;;;;;;;4.35;2.20;;;15.20;99.90;;;;;;5026988;28;20025;-61
2022/07/18 03:13:45;;;;;;;2.92;1.85;;;15.10;99.90;;;;;;5039348;28;20051;-60
2022/07/18 03:16:10;;;;;;;5.53;2.03;;;15.20;99.90;;;;;;5035969;28;20029;-61
2022/07/18 03:18:36;;;;;;;6.45;2.40;;;15.10;99.90;;;;;;5041459;28;20033;-61
2022/07/18 03:21:02;;;;;;;3.65;2.40;;;15.20;99.90;;;;;;5031652;28;20030;-61
2022/07/18 03:23:27;;;;;;;4.25;2.17;;;15.10;99.90;;;;;;5030057;28;20041;-61
2022/07/18 03:25:53;;;;;;;4.70;2.10;;;15.10;99.90;;;;;;5032432;28;20443;-61
2022/07/18 03:28:18;;;;;;;3.88;2.33;;;15.10;99.90;;;;;;5028204;28;20112;-62
2022/07/18 03:30:44;;;;;;;4.03;2.10;;;15.10;99.90;;;;;;5031298;28;20045;-61
2022/07/18 03:33:09;;;;;;;6.00;1.98;;;15.10;99.90;;;;;;5029628;28;20048;-61
2022/07/18 03:35:35;;;;;;;6.85;2.50;;;15.00;99.90;;;;;;5033343;28;20025;-61
2022/07/18 03:38:01;;;;;;;4.20;2.00;;;15.00;99.90;;;;;;5030622;28;20112;-61
2022/07/18 03:40:26;;;;;;;3.92;2.25;;;15.10;99.90;;;;;;5029862;28;20112;-61
2022/07/18 03:42:52;;;;;;;3.45;2.10;;;15.00;99.90;;;;;;5028980;28;20037;-61
2022/07/18 03:45:18;;;;;;;3.97;2.30;;;14.90;99.90;;;;;;5039139;28;20033;-60
2022/07/18 03:47:43;;;;;;;7.07;2.47;;;15.00;99.90;;;;;;5031699;28;20033;-61
2022/07/18 03:50:09;;;;;;;7.30;2.42;;;14.90;99.90;;;;;;5041156;28;20025;-61
2022/07/18 03:52:35;;;;;;;4.97;2.28;;;14.90;99.90;;;;;;5029221;28;20389;-61
2022/07/18 03:55:01;;;;;;;3.80;2.08;;;14.90;99.90;;;;;;5030127;28;20021;-61
2022/07/18 03:57:27;;;;;;;3.38;2.35;;;14.90;99.90;;;;;;5035838;28;20680;-61
2022/07/18 03:59:53;;;;;;;5.75;2.22;;;14.80;99.90;;;;;;5034395;28;20064;-62
2022/07/18 04:02:18;;;;;;;4.20;2.00;;;14.80;99.90;;;;;;5028048;28;20029;-61
2022/07/18 04:04:44;;;;;;;5.85;2.20;;;14.80;99.90;;;;;;5036833;28;20048;-60
2022/07/18 04:07:09;;;;;;;4.15;2.10;;;14.90;99.90;;;;;;5030276;28;20032;-62
2022/07/18 04:09:35;;;;;;;5.00;2.60;;;14.90;99.90;;;;;;5029616;28;20021;-61
2022/07/18 04:12:01;;;;;;;5.57;2.42;;;14.90;99.90;;;;;;5026575;28;20108;-61
2022/07/18 04:14:26;;;;;;;4.70;2.47;;;15.00;99.90;;;;;;5042437;28;20870;-61
2022/07/18 04:16:52;;;;;;;5.78;2.70;;;14.90;99.90;;;;;;5032160;28;20047;-61
2022/07/18 04:19:17;;;;;;;7.10;2.92;;;14.90;99.90;;;;;;5036216;28;20053;-61
2022/07/18 04:21:44;;;;;;;5.75;2.42;;;14.90;99.90;;;;;;5030681;28;20048;-61
2022/07/18 04:24:10;;;;;;;7.07;2.53;;;14.90;99.90;;;;;;5032092;28;20120;-61
2022/07/18 04:26:35;;;;;;;3.55;2.45;;;15.00;99.90;;;;;;5036262;28;20155;-61
2022/07/18 04:29:01;;;;;;;9.27;2.65;;;15.00;99.90;;;;;;5028793;28;20021;-60
2022/07/18 04:31:26;;;;;;;5.07;2.42;;;15.10;99.90;;;;;;5031649;28;20034;-61
2022/07/18 04:33:52;;;;;;;6.10;2.85;;;15.10;99.90;;;;;;5038932;28;20675;-61
2022/07/18 04:36:18;;;;;;;6.07;2.40;;;15.00;99.90;;;;;;5028750;28;20025;-60
2022/07/18 04:38:44;;;;;;;4.53;2.15;;;15.10;99.90;;;;;;5028894;28;20025;-62
2022/07/18 04:41:10;;;;;;;5.43;2.95;;;15.10;99.90;;;;;;5029800;28;20036;-61
2022/07/18 04:43:35;;;;;;;4.72;2.40;;;15.10;99.90;;;;;;5030528;28;20021;-60
2022/07/18 04:46:01;;;;;;;6.35;2.38;;;15.20;99.90;;;;;;5039336;28;20044;-61
2022/07/18 04:48:26;;;;;;;7.38;2.42;;;15.30;99.90;;;;;;5030972;28;20021;-61
2022/07/18 04:50:52;;;;;;;7.15;2.55;;;15.30;99.90;;;;;;5028785;28;20496;-61
2022/07/18 04:53:18;;;;;;;4.13;2.42;;;15.40;99.90;;;;;;5026015;28;20092;-62
2022/07/18 04:55:43;;;;;;;5.70;2.65;;;15.40;99.90;;;;;;5035268;28;20021;-61
2022/07/18 04:58:09;;;;;;;5.18;2.60;;;15.40;99.90;;;;;;5030132;28;20401;-61
2022/07/18 05:00:34;;;;;;;5.53;2.70;;;15.60;99.90;;;;;;5033122;28;20033;-61
2022/07/18 05:03:00;;;;;;;5.30;2.28;;;15.60;99.90;;;;;;5025299;28;20022;-62
2022/07/18 05:05:27;;;;;;;8.35;3.03;;;15.70;99.90;;;;;;5028847;28;20029;-61
2022/07/18 05:07:53;;;;;;;5.75;2.67;;;15.90;99.90;;;;;;5025681;28;20033;-61
2022/07/18 05:10:21;;;;;;;7.82;3.13;;;16.20;99.90;;;;;;5031902;28;20156;-62
2022/07/18 05:12:49;;;;;;;8.98;3.05;;;16.40;99.90;;;;;;5030465;28;20166;-61
2022/07/18 05:15:17;;;;;;;7.28;2.97;;;16.50;99.90;;;;;;5038880;28;20029;-62
2022/07/18 05:17:43;;;;;;;6.30;2.70;;;16.60;99.90;;;;;;5041674;28;20020;-61
2022/07/18 05:20:14;;;;;;;5.80;2.50;;;16.70;99.90;;;;;;5039856;28;20033;-61
2022/07/18 05:22:40;;;;;;;8.32;3.00;;;16.80;99.90;;;;;;5029291;28;20405;-61
2022/07/18 05:25:07;;;;;;;6.45;2.40;;;16.90;99.90;;;;;;5052490;28;20026;-61
2022/07/18 05:27:36;;;;;;;8.15;2.88;;;17.00;99.90;;;;;;5043891;28;20741;-61
2022/07/18 05:30:03;;;;;;;7.60;2.30;;;17.20;99.90;;;;;;5034374;28;20026;-61
2022/07/18 05:32:29;;;;;;;7.10;2.80;;;17.20;99.90;;;;;;5042779;28;20480;-62
2022/07/18 05:34:55;;;;;;;8.02;2.90;;;17.30;99.90;;;;;;5026829;28;20032;-61
2022/07/18 05:37:20;;;;;;;7.40;2.20;;;17.40;99.90;;;;;;5033359;28;20833;-61
2022/07/18 05:39:46;;;;;;;9.93;2.20;;;17.60;99.90;;;;;;5029420;28;20096;-61
2022/07/18 05:42:12;;;;;;;6.20;2.38;;;17.70;99.90;;;;;;5037130;28;20914;-61
2022/07/18 05:44:37;;;;;;;3.97;1.98;;;18.00;99.90;;;;;;5029280;28;20029;-61
2022/07/18 05:47:03;;;;;;;4.28;1.80;;;18.20;99.90;;;;;;5036778;28;20026;-60
2022/07/18 05:49:28;;;;;;;8.75;1.95;;;18.30;99.90;;;;;;5032203;28;20025;-60
2022/07/18 05:51:54;;;;;;;3.33;1.58;;;18.50;99.90;;;;;;5034105;28;20028;-61
2022/07/18 05:54:20;;;;;;;6.63;1.95;;;18.50;99.90;;;;;;5031923;28;20100;-61
2022/07/18 05:56:50;;;;;;;7.57;1.80;;;18.60;99.90;;;;;;5034623;28;20028;-61
2022/07/18 05:59:17;;;;;;;6.55;1.75;;;18.70;99.90;;;;;;5037001;28;20071;-61
2022/07/18 06:01:43;;;;;;;8.85;1.50;;;18.80;99.90;;;;;;5043212;28;20179;-60
2022/07/18 06:04:08;;;;;;;3.17;1.30;;;18.90;99.90;;;;;;5031977;28;20112;-61
2022/07/18 06:06:34;;;;;;;7.68;1.77;;;19.00;99.90;;;;;;5033189;28;20035;-61
2022/07/18 06:08:59;;;;;;;2.90;1.33;;;19.10;99.90;;;;;;5033294;28;20075;-60
2022/07/18 06:11:25;;;;;;;6.40;1.52;;;19.20;99.90;;;;;;5029974;28;20402;-62
2022/07/18 06:13:51;;;;;;;7.53;1.33;;;19.30;99.90;;;;;;5039123;28;20551;-61
2022/07/18 06:16:16;;;;;;;5.38;1.67;;;19.40;99.90;;;;;;5034209;28;20029;-61
2022/07/18 06:18:42;;;;;;;5.03;1.58;;;19.60;99.90;;;;;;5048498;28;20025;-62
2022/07/18 06:21:08;;;;;;;5.90;1.75;;;19.60;99.90;;;;;;5032398;28;20536;-60
2022/07/18 06:23:35;;;;;;;3.05;1.48;;;19.80;99.90;;;;;;5038645;28;20028;-61
2022/07/18 06:26:01;;;;;;;3.53;1.50;;;19.90;99.90;;;;;;5037646;28;20561;-61
2022/07/18 06:28:28;;;;;;;4.97;1.48;;;20.00;99.90;;;;;;5036354;28;20063;-61
2022/07/18 06:30:54;;;;;;;5.88;1.50;;;20.00;99.90;;;;;;5027671;28;20119;-60
2022/07/18 06:33:20;;;;;;;3.53;1.48;;;20.10;99.90;;;;;;5032879;28;20029;-60
2022/07/18 06:35:47;;;;;;;5.75;1.58;;;20.40;99.90;;;;;;5033914;28;20084;-60
2022/07/18 06:38:13;;;;;;;5.25;1.42;;;20.40;99.90;;;;;;5033836;28;20731;-60
2022/07/18 06:40:39;;;;;;;4.25;1.30;;;20.40;99.90;;;;;;5033167;28;20029;-60
2022/07/18 06:43:06;;;;;;;6.97;1.52;;;20.50;99.90;;;;;;5031049;28;20408;-60
2022/07/18 06:45:32;;;;;;;3.28;1.45;;;20.70;99.90;;;;;;5030386;28;20837;-61
2022/07/18 06:47:58;;;;;;;5.25;1.60;;;20.80;99.90;;;;;;5037740;28;20542;-61
2022/07/18 06:50:23;;;;;;;6.35;1.40;;;20.90;99.90;;;;;;5031131;28;20033;-61
2022/07/18 06:52:49;;;;;;;5.03;1.50;;;21.10;99.90;;;;;;5031083;28;20071;-60
2022/07/18 06:55:14;;;;;;;5.55;1.63;;;21.20;99.90;;;;;;5033438;28;20087;-61
2022/07/18 06:57:41;;;;;;;2.20;1.27;;;21.20;99.90;;;;;;5033859;28;20028;-60
2022/07/18 07:00:09;;;;;;;10.75;1.83;;;21.30;99.90;;;;;;5027617;28;20107;-60
2022/07/18 07:02:39;;;;;;;4.68;1.20;;;21.40;99.90;;;;;;5031169;28;20033;-60
2022/07/18 07:05:05;;;;;;;9.18;1.73;;;21.60;99.90;;;;;;5033546;28;20083;-61
2022/07/18 07:07:31;;;;;;;7.40;1.73;;;21.60;99.90;;;;;;5032779;28;20029;-60
2022/07/18 07:09:56;;;;;;;4.07;1.42;;;21.80;99.90;;;;;;5032112;28;20357;-61
2022/07/18 07:12:22;;;;;;;4.35;1.63;;;21.80;99.90;;;;;;5029343;28;20037;-61
2022/07/18 07:14:47;;;;;;;5.20;1.52;;;21.80;99.90;;;;;;5042352;28;20029;-60
2022/07/18 07:17:13;;;;;;;4.43;1.30;;;22.00;99.90;;;;;;5038747;28;20025;-60
2022/07/18 07:19:38;;;;;;;3.92;1.30;;;22.20;99.90;;;;;;5039395;28;20021;-60
2022/07/18 07:22:04;;;;;;;3.15;1.33;;;22.30;99.90;;;;;;5031883;28;20171;-61
2022/07/18 07:24:30;;;;;;;5.47;1.48;;;22.30;99.90;;;;;;5034778;28;20452;-61
2022/07/18 07:26:55;;;;;;;4.82;1.88;;;22.30;99.90;;;;;;5030631;28;20033;-61
2022/07/18 07:29:21;;;;;;;4.80;1.42;;;22.40;99.90;;;;;;5026407;28;20033;-61
2022/07/18 07:31:46;;;;;;;5.82;1.60;;;22.40;99.90;;;;;;5026825;28;20056;-61
2022/07/18 07:34:12;;;;;;;6.18;1.42;;;22.50;99.90;;;;;;5030672;28;20029;-62
2022/07/18 07:36:37;;;;;;;7.18;1.80;;;22.50;99.90;;;;;;5031181;28;20022;-60
2022/07/18 07:39:03;;;;;;;5.28;1.50;;;22.60;99.90;;;;;;5029841;28;20021;-61
2022/07/18 07:41:29;;;;;;;3.95;1.85;;;22.90;99.90;;;;;;5032549;28;20029;-61
2022/07/18 07:43:54;;;;;;;9.82;1.75;;;23.10;99.90;;;;;;5029869;28;20134;-61
2022/07/18 07:46:20;;;;;;;6.28;1.80;;;23.00;99.90;;;;;;5035618;28;20037;-61
2022/07/18 07:48:47;;;;;;;4.32;1.75;;;23.00;99.90;;;;;;5035588;28;20025;-61
2022/07/18 07:51:13;;;;;;;5.65;1.50;;;23.20;99.90;;;;;;5025818;28;20071;-61
2022/07/18 07:53:39;;;;;;;7.40;2.17;;;23.40;99.90;;;;;;5028134;28;20561;-61
2022/07/18 07:56:05;;;;;;;7.80;1.80;;;23.40;99.90;;;;;;5028702;28;20238;-61
2022/07/18 07:58:30;;;;;;;4.75;1.52;;;23.50;99.90;;;;;;5028919;28;20033;-61
2022/07/18 08:00:56;;;;;;;5.93;1.50;;;23.50;99.90;;;;;;5031573;28;20298;-62
2022/07/18 08:03:21;;;;;;;6.80;1.80;;;23.50;99.90;;;;;;5036161;28;20030;-61
2022/07/18 08:05:51;;;;;;;10.90;2.20;;;23.60;99.90;;;;;;5030688;28;20653;-61
2022/07/18 08:08:18;;;;;;;4.75;1.60;;;23.90;99.90;;;;;;5027780;28;20041;-61
2022/07/18 08:10:44;;;;;;;4.47;1.55;;;24.00;99.90;;;;;;5037976;28;20682;-61
2022/07/18 08:13:11;;;;;;;7.88;1.85;;;23.90;99.90;;;;;;5035729;28;20105;-61
2022/07/18 08:15:37;;;;;;;6.55;1.80;;;23.90;99.90;;;;;;5042536;28;20606;-61
2022/07/18 08:18:03;;;;;;;3.88;1.52;;;24.00;99.90;;;;;;5045821;28;20028;-62
2022/07/18 08:20:29;;;;;;;6.75;2.03;;;24.10;99.90;;;;;;5031616;28;20440;-61
2022/07/18 08:23:06;;;;;;;7.97;2.17;;;24.20;99.90;;;;;;5031062;28;20035;-61
2022/07/18 08:25:35;;;;;;;4.78;1.50;;;24.30;99.90;;;;;;5034958;28;20380;-60
2022/07/18 08:28:01;;;;;;;6.63;1.80;;;24.30;99.90;;;;;;5032886;28;20034;-62
2022/07/18 08:30:28;;;;;;;6.00;2.00;;;24.40;99.90;;;;;;5031296;28;20033;-61
2022/07/18 08:32:54;;;;;;;4.50;1.80;;;24.60;99.90;;;;;;5030010;28;20033;-61
2022/07/18 08:35:19;;;;;;;6.95;2.10;;;24.80;99.90;;;;;;5030245;28;20075;-61
2022/07/18 08:37:45;;;;;;;5.32;1.60;;;24.80;99.90;;;;;;5031361;28;20485;-61
2022/07/18 08:40:12;;;;;;;4.72;1.48;;;24.80;99.90;;;;;;5028776;28;20101;-61
2022/07/18 08:42:38;;;;;;;4.07;1.95;;;25.00;99.90;;;;;;5028917;28;20029;-62
2022/07/18 08:45:04;;;;;;;7.90;1.70;;;25.00;99.90;;;;;;5032307;28;20404;-62
2022/07/18 08:47:31;;;;;;;7.90;1.63;;;25.10;99.90;;;;;;5036492;28;20038;-62
2022/07/18 08:49:57;;;;;;;6.60;1.45;;;25.10;99.90;;;;;;5027097;28;20061;-61
2022/07/18 08:52:23;;;;;;;4.78;1.60;;;25.00;99.90;;;;;;5033813;28;20021;-62
2022/07/18 08:54:49;;;;;;;5.68;1.90;;;25.10;99.90;;;;;;5025819;28;20040;-61
2022/07/18 08:57:15;;;;;;;3.08;1.30;;;25.10;99.90;;;;;;5035762;28;20144;-62
2022/07/18 08:59:41;;;;;;;6.65;1.73;;;25.30;99.90;;;;;;5025556;28;20029;-61
2022/07/18 09:02:09;;;;;;;5.85;1.48;;;25.50;99.90;;;;;;5036936;28;20049;-62
2022/07/18 09:04:40;;;;;;;4.57;1.45;;;25.30;99.90;;;;;;5030006;28;20396;-61
2022/07/18 09:07:10;;;;;;;4.38;1.48;;;25.30;99.90;;;;;;5025663;28;20520;-61
2022/07/18 09:09:37;;;;;;;4.13;1.60;;;25.40;99.90;;;;;;5027170;28;20273;-62
2022/07/18 09:12:06;;;;;;;4.18;1.40;;;25.40;99.90;;;;;;5032647;28;20037;-62
2022/07/18 09:14:33;;;;;;;5.40;1.50;;;25.60;99.90;;;;;;5033162;28;20032;-62
2022/07/18 09:17:08;;;;;;;5.25;1.38;;;25.80;99.90;;;;;;5043266;28;20024;-61
2022/07/18 09:19:35;;;;;;;4.25;1.30;;;25.80;99.90;;;;;;5045450;28;20074;-62
2022/07/18 09:22:21;;;;;;;4.80;1.63;;;25.90;99.90;;;;;;5031504;28;20045;-61
2022/07/18 09:25:14;;;;;;;5.03;1.77;;;26.00;99.90;;;;;;5038389;28;20025;-62
2022/07/18 09:27:48;;;;;;;3.92;1.73;;;26.20;99.90;;;;;;5038099;28;20041;-62
2022/07/18 09:30:32;;;;;;;4.80;1.50;;;26.10;99.90;;;;;;5029742;28;20037;-62
2022/07/18 09:33:03;;;;;;;4.70;1.60;;;26.40;99.90;;;;;;5038426;28;20444;-62
2022/07/18 09:35:37;;;;;;;2.78;1.35;;;26.40;99.90;;;;;;5031365;28;20511;-62
2022/07/18 09:38:08;;;;;;;3.22;1.52;;;26.50;99.90;;;;;;5028142;28;20037;-62
2022/07/18 09:40:36;;;;;;;4.82;1.42;;;26.70;99.90;;;;;;5030529;28;20109;-62
2022/07/18 09:43:05;;;;;;;2.03;1.20;;;26.50;99.90;;;;;;5032666;28;20047;-61
2022/07/18 09:45:39;;;;;;;3.90;1.67;;;26.60;99.90;;;;;;5030383;28;20125;-63
2022/07/18 09:48:10;;;;;;;5.60;1.65;;;26.60;99.90;;;;;;5041517;28;20109;-62
2022/07/18 09:50:37;;;;;;;4.50;1.50;;;26.90;99.90;;;;;;5032974;28;20480;-62
2022/07/18 09:53:06;;;;;;;3.92;1.40;;;26.80;99.90;;;;;;5042786;28;20040;-61
2022/07/18 09:55:32;;;;;;;5.45;1.48;;;26.90;99.90;;;;;;5028780;28;20030;-62
2022/07/18 09:58:04;;;;;;;3.90;1.50;;;27.10;99.90;;;;;;5036651;28;20025;-61
2022/07/18 10:00:32;;;;;;;9.77;1.90;;;27.00;99.90;;;;;;5045135;28;20082;-62
2022/07/18 10:02:59;;;;;;;9.07;1.40;;;27.10;99.90;;;;;;5039394;28;20025;-61
2022/07/18 10:05:34;;;;;;;4.70;1.50;;;27.10;99.90;;;;;;5031466;28;20021;-62
2022/07/18 10:08:01;;;;;;;5.20;1.65;;;27.30;99.90;;;;;;5034558;28;20029;-62
2022/07/18 10:10:29;;;;;;;5.03;1.70;;;27.30;99.90;;;;;;5031793;28;20653;-62
2022/07/18 10:12:56;;;;;;;3.28;1.33;;;27.50;99.90;;;;;;5033798;28;20481;-62
2022/07/18 10:15:24;;;;;;;5.20;1.30;;;27.30;99.90;;;;;;5037316;28;20056;-62
2022/07/18 10:17:50;;;;;;;4.45;1.38;;;27.30;99.90;;;;;;5046472;28;20037;-63
2022/07/18 10:20:16;;;;;;;4.82;1.30;;;27.50;99.90;;;;;;5042536;28;20667;-61
2022/07/18 10:22:43;;;;;;;1.98;1.23;;;27.60;99.90;;;;;;5029477;28;20499;-62
2022/07/18 10:25:13;;;;;;;2.22;1.00;;;27.60;99.90;;;;;;5037220;28;20638;-62
2022/07/18 10:28:09;;;;;;;2.75;1.20;;;27.60;99.90;;;;;;5037793;28;20528;-62
2022/07/18 10:30:53;;;;;;;4.22;1.27;;;;;;;;;;5040061;28;20064;-62
2022/07/18 10:33:42;;;;;;;3.38;1.50;;;;;;;;;;5033650;28;20041;-61
2022/07/18 10:36:12;;;;;;;3.67;1.40;;;;;;;;;;5030301;28;20057;-62
2022/07/18 10:38:39;;;;;;;2.97;1.50;;;;;;;;;;5031056;28;20025;-63
2022/07/18 10:41:09;;;;;;;4.28;1.20;;;;;;;;;;5027846;28;20036;-62
2022/07/18 10:43:37;;;;;;;4.97;1.45;;;;;;;;;;5031941;28;20025;-61
2022/07/18 10:46:04;;;;;;;3.80;1.20;;;;;;;;;;5029257;28;20026;-62
2022/07/18 10:48:33;;;;;;;4.90;1.45;;;;;;;;;;5041994;28;20036;-61
2022/07/18 10:51:02;;;;;;;6.53;1.60;;;;;;;;;;5026326;28;20071;-62
2022/07/18 10:54:01;;;;;;;3.15;1.20;;;28.00;99.90;;;;;;5030334;28;20105;-61
2022/07/18 10:56:27;;;;;;;4.97;1.27;;;28.10;99.90;;;;;;5034016;28;20040;-61
2022/07/18 10:58:55;;;;;;;6.05;1.52;;;28.20;99.90;;;;;;5028562;28;20025;-62
2022/07/18 11:01:22;;;;;;;5.22;1.40;;;28.10;99.90;;;;;;5031953;28;20029;-62
2022/07/18 11:03:49;;;;;;;2.80;1.50;;;28.10;99.90;;;;;;5029028;28;20029;-62
2022/07/18 11:06:16;;;;;;;5.18;1.60;;;28.80;99.90;;;;;;5034947;28;20724;-61
2022/07/18 11:08:42;;;;;;;7.85;1.80;;;28.40;99.90;;;;;;5029437;28;20044;-62
2022/07/18 11:11:09;;;;;;;7.70;1.60;;;28.30;99.90;;;;;;5030931;28;20381;-61
2022/07/18 11:13:40;;;;;;;3.95;1.70;;;28.50;99.90;;;;;;5035145;28;20025;-61
2022/07/18 11:16:15;;;;;;;3.20;1.60;;;28.60;99.90;;;;;;5036691;28;20505;-62
2022/07/18 11:18:42;;;;;;;5.13;1.60;;;;;;;;;;5050697;28;20025;-61
2022/07/18 11:21:15;;;;;;;4.85;1.85;;;;;;;;;;5036868;28;20060;-62
2022/07/18 11:23:48;;;;;;;7.28;1.95;;;28.50;99.90;;;;;;5026941;28;20033;-62
2022/07/18 11:26:16;;;;;;;5.60;1.75;;;;;;;;;;5036286;28;20039;-61
2022/07/18 11:28:43;;;;;;;4.78;1.52;;;;;;;;;;5030988;28;20543;-61
2022/07/18 11:31:11;;;;;;;6.85;1.73;;;;;;;;;;5035651;28;20074;-62
2022/07/18 11:33:43;;;;;;;3.13;1.42;;;;;;;;;;5029504;28;20461;-62
2022/07/18 11:36:16;;;;;;;9.90;1.80;;;;;;;;;;5032593;28;20021;-62
2022/07/18 11:38:53;;;;;;;5.05;1.67;;;;;;;;;;5030101;28;20110;-61
2022/07/18 11:41:22;;;;;;;6.57;1.90;;;;;;;;;;5025515;28;20867;-62
2022/07/18 11:43:50;;;;;;;6.22;1.63;;;;;;;;;;5030928;28;20026;-63
2022/07/18 11:46:18;;;;;;;7.35;1.80;;;29.10;99.90;;;;;;5029545;28;20503;-62
2022/07/18 11:48:45;;;;;;;9.88;1.63;;;29.10;99.90;;;;;;5038677;28;20086;-62
2022/07/18 11:51:15;;;;;;;5.63;1.77;;;;;;;;;;5025573;28;20493;-61
2022/07/18 11:53:45;;;;;;;4.38;1.90;;;;;;;;;;5031114;28;20025;-62
2022/07/18 11:56:11;;;;;;;8.35;1.50;;;;;;;;;;5035181;28;20107;-62
2022/07/18 11:58:37;;;;;;;4.97;1.63;;;;;;;;;;5032513;28;20096;-61
2022/07/18 12:01:04;;;;;;;5.40;1.70;;;29.30;99.30;;;;;;5031495;28;20033;-61
2022/07/18 12:03:30;;;;;;;5.07;1.50;;;29.50;99.90;;;;;;5024789;28;20033;-62
2022/07/18 12:05:56;;;;;;;6.47;1.90;;;29.40;99.90;;;;;;5025532;28;20034;-62
2022/07/18 12:08:36;;;;;;;6.72;1.70;;;29.40;99.90;;;;;;5031053;28;20041;-62
2022/07/18 12:11:27;;;;;;;5.63;2.00;;;29.20;99.90;;;;;;5030434;28;20017;-61
2022/07/18 12:13:55;;;;;;;4.80;1.73;;;29.30;99.90;;;;;;5028337;28;20142;-61
2022/07/18 12:16:25;;;;;;;3.55;1.60;;;29.10;99.90;;;;;;5035038;28;20029;-62
2022/07/18 12:18:56;;;;;;;7.05;1.70;;;29.20;99.90;;;;;;5036993;28;20025;-61
2022/07/18 12:21:21;;;;;;;6.57;1.65;;;29.10;99.90;;;;;;5040674;28;20029;-62
2022/07/18 12:23:47;;;;;;;5.45;1.60;;;29.20;99.90;;;;;;5026740;28;20108;-62
2022/07/18 12:26:27;;;;;;;5.20;1.80;;;29.30;99.90;;;;;;5029908;28;20059;-62
2022/07/18 12:29:07;;;;;;;7.20;2.10;;;29.30;99.90;;;;;;5034783;28;20037;-62
2022/07/18 12:31:41;;;;;;;6.35;1.77;;;29.40;99.90;;;;;;5029293;28;20079;-62
2022/07/18 12:34:08;;;;;;;3.45;1.60;;;29.50;99.90;;;;;;5025559;28;20120;-61
2022/07/18 12:36:34;;;;;;;7.05;1.30;;;29.40;99.90;;;;;;5036638;28;20489;-61
2022/07/18 12:39:00;;;;;;;3.97;1.35;;;29.20;99.90;;;;;;5044718;28;20055;-61
2022/07/18 12:41:29;;;;;;;5.03;1.30;;;29.30;99.90;;;;;;5026378;28;20064;-61
2022/07/18 12:43:54;;;;;;;4.35;1.52;;;29.30;99.90;;;;;;5030130;28;20155;-62
2022/07/18 12:46:20;;;;;;;3.05;1.33;;;29.40;99.90;;;;;;5031042;28;20048;-62
2022/07/18 12:48:45;;;;;;;2.90;1.50;;;29.50;99.90;;;;;;5045353;28;20056;-62
2022/07/18 12:51:11;;;;;;;5.85;1.48;;;29.60;99.90;;;;;;5025499;28;20144;-62
2022/07/18 12:53:39;;;;;;;5.63;1.30;;;29.70;99.90;;;;;;5029352;28;20049;-62
2022/07/18 12:56:05;;;;;;;7.63;1.33;;;29.50;99.90;;;;;;5034792;28;20028;-62